createdAt,value
2024-05-09T00:00:36.224Z,102020.84
2024-05-09T00:03:10.877Z,102021.66
2024-05-09T00:05:40.567Z,102017.56
2024-05-09T00:08:09.095Z,102017.50
2024-05-09T00:10:38.491Z,102025.34
2024-05-09T00:13:07.487Z,102020.19
2024-05-09T00:15:35.265Z,102017.19
2024-05-09T00:18:03.142Z,102029.00
2024-05-09T00:20:37.514Z,102033.41
2024-05-09T00:23:07.762Z,102023.34
2024-05-09T00:25:35.476Z,102022.03
2024-05-09T00:28:02.426Z,102020.72
2024-05-09T00:30:34.337Z,102023.47
2024-05-09T00:33:04.880Z,102025.59
2024-05-09T00:35:32.564Z,102024.91
2024-05-09T00:37:59.742Z,102029.56
2024-05-09T00:40:35.737Z,102027.19
2024-05-09T00:43:06.605Z,102030.75
2024-05-09T00:45:36.281Z,102027.72
2024-05-09T00:48:09.423Z,102032.75
2024-05-09T00:50:40.469Z,102025.91
2024-05-09T00:53:09.076Z,102031.81
2024-05-09T00:55:37.658Z,102025.84
2024-05-09T00:58:06.627Z,102029.00
2024-05-09T01:00:39.015Z,102029.53
2024-05-09T01:03:09.764Z,102035.81
2024-05-09T01:05:39.570Z,102027.94
2024-05-09T01:08:07.290Z,102025.94
2024-05-09T01:10:35.505Z,102029.94
2024-05-09T01:13:03.963Z,102019.47
2024-05-09T01:15:30.775Z,102028.78
2024-05-09T01:17:58.768Z,102026.41
2024-05-09T01:20:36.746Z,102026.81
2024-05-09T01:23:09.432Z,102028.22
2024-05-09T01:25:36.463Z,102014.84
2024-05-09T01:28:03.101Z,102019.31
2024-05-09T01:30:34.775Z,102023.09
2024-05-09T01:33:05.244Z,102016.94
2024-05-09T01:35:33.005Z,102018.38
2024-05-09T01:37:59.899Z,102017.88
2024-05-09T01:40:36.229Z,102024.59
2024-05-09T01:43:05.814Z,102019.47
2024-05-09T01:45:32.409Z,102021.13
2024-05-09T01:47:59.306Z,102022.53
2024-05-09T01:50:37.160Z,102024.81
2024-05-09T01:53:07.756Z,102017.09
2024-05-09T01:55:34.534Z,102009.00
2024-05-09T01:58:01.204Z,102019.56
2024-05-09T02:00:37.922Z,102009.78
2024-05-09T02:03:15.639Z,102012.22
2024-05-09T02:05:47.479Z,102018.13
2024-05-09T02:08:17.315Z,102009.19
2024-05-09T02:10:45.260Z,102019.34
2024-05-09T02:13:13.158Z,102016.59
2024-05-09T02:15:39.864Z,102015.91
2024-05-09T02:18:08.084Z,102008.72
2024-05-09T02:20:36.874Z,102008.03
2024-05-09T02:23:06.183Z,102006.31
2024-05-09T02:25:33.574Z,102011.34
2024-05-09T02:28:00.322Z,102006.03
2024-05-09T02:30:37.746Z,102005.19
2024-05-09T02:33:08.214Z,102006.41
2024-05-09T02:35:35.746Z,102000.03
2024-05-09T02:38:02.454Z,102011.91
2024-05-09T02:40:36.479Z,102004.00
2024-05-09T02:43:06.339Z,102013.13
2024-05-09T02:45:33.338Z,102014.00
2024-05-09T02:48:00.507Z,102011.44
2024-05-09T02:50:34.487Z,102009.72
2024-05-09T02:53:05.687Z,102012.28
2024-05-09T02:55:32.718Z,102011.63
2024-05-09T02:57:59.516Z,102008.00
2024-05-09T03:00:34.815Z,102019.03
2024-05-09T03:03:08.507Z,102012.66
2024-05-09T03:05:36.686Z,102006.28
2024-05-09T03:08:04.128Z,102006.28
2024-05-09T03:10:35.956Z,102011.78
2024-05-09T03:13:13.196Z,102009.25
2024-05-09T03:15:41.221Z,102005.78
2024-05-09T03:18:08.572Z,102000.50
2024-05-09T03:20:36.461Z,102007.69
2024-05-09T03:23:05.379Z,102014.91
2024-05-09T03:25:32.565Z,102009.63
2024-05-09T03:27:59.687Z,102016.81
2024-05-09T03:30:38.715Z,102018.69
2024-05-09T03:33:18.070Z,102015.13
2024-05-09T03:35:46.672Z,102007.50
2024-05-09T03:38:13.930Z,102004.75
2024-05-09T03:40:46.177Z,102015.59
2024-05-09T03:43:13.432Z,102007.34
2024-05-09T03:45:40.177Z,102011.78
2024-05-09T03:48:07.369Z,102004.59
2024-05-09T03:50:36.017Z,102011.13
2024-05-09T03:53:03.723Z,102010.44
2024-05-09T03:55:31.061Z,102009.63
2024-05-09T03:57:57.790Z,102014.06
2024-05-09T04:00:31.379Z,102013.88
2024-05-09T04:03:05.931Z,102010.09
2024-05-09T04:05:34.400Z,102006.28
2024-05-09T04:08:01.486Z,102013.50
2024-05-09T04:10:33.172Z,102013.50
2024-05-09T04:13:01.670Z,102016.56
2024-05-09T04:15:28.423Z,102016.19
2024-05-09T04:17:55.331Z,102013.91
2024-05-09T04:20:32.998Z,102020.28
2024-05-09T04:23:06.002Z,102028.19
2024-05-09T04:25:32.842Z,102019.75
2024-05-09T04:27:59.480Z,102032.09
2024-05-09T04:30:34.865Z,102030.38
2024-05-09T04:33:07.125Z,102021.91
2024-05-09T04:35:35.166Z,102024.09
2024-05-09T04:38:01.994Z,102017.75
2024-05-09T04:40:33.855Z,102019.47
2024-05-09T04:43:03.568Z,102026.69
2024-05-09T04:45:30.461Z,102028.38
2024-05-09T04:47:57.502Z,102028.03
2024-05-09T04:50:33.733Z,102027.66
2024-05-09T04:53:05.024Z,102017.97
2024-05-09T04:55:32.628Z,102026.03
2024-05-09T04:57:59.200Z,102028.59
2024-05-09T05:00:32.598Z,102019.09
2024-05-09T05:03:09.225Z,102023.41
2024-05-09T05:05:41.815Z,102018.16
2024-05-09T05:08:13.243Z,102032.97
2024-05-09T05:10:40.722Z,102024.34
2024-05-09T05:13:16.670Z,102023.75
2024-05-09T05:15:44.195Z,102023.88
2024-05-09T05:18:10.903Z,102029.00
2024-05-09T05:20:37.781Z,102023.56
2024-05-09T05:23:08.769Z,102035.75
2024-05-09T05:25:35.436Z,102039.16
2024-05-09T05:28:02.052Z,102039.00
2024-05-09T05:30:32.968Z,102041.53
2024-05-09T05:33:01.586Z,102035.63
2024-05-09T05:35:28.529Z,102035.94
2024-05-09T05:37:55.294Z,102039.63
2024-05-09T05:40:28.615Z,102038.03
2024-05-09T05:43:03.386Z,102034.00
2024-05-09T05:45:29.980Z,102034.97
2024-05-09T05:47:56.948Z,102040.78
2024-05-09T05:50:28.154Z,102037.25
2024-05-09T05:53:02.035Z,102041.97
2024-05-09T05:55:28.969Z,102041.88
2024-05-09T05:57:55.595Z,102037.28
2024-05-09T06:00:29.715Z,102041.34
2024-05-09T06:03:04.568Z,102040.78
2024-05-09T06:05:31.297Z,102048.47
2024-05-09T06:07:58.050Z,102043.88
2024-05-09T06:10:30.058Z,102046.53
2024-05-09T06:13:03.981Z,102046.59
2024-05-09T06:15:30.561Z,102039.41
2024-05-09T06:17:57.361Z,102049.69
2024-05-09T06:20:31.986Z,102045.84
2024-05-09T06:23:03.444Z,102045.84
2024-05-09T06:25:30.278Z,102045.06
2024-05-09T06:27:56.938Z,102049.78
2024-05-09T06:30:30.707Z,102046.88
2024-05-09T06:33:05.703Z,102052.28
2024-05-09T06:35:33.430Z,102048.69
2024-05-09T06:38:00.503Z,102050.88
2024-05-09T06:40:36.154Z,102048.16
2024-05-09T06:43:05.789Z,102047.56
2024-05-09T06:45:32.562Z,102050.41
2024-05-09T06:47:59.471Z,102055.09
2024-05-09T06:50:28.664Z,102054.97
2024-05-09T06:53:02.575Z,102052.91
2024-05-09T06:55:29.370Z,102050.75
2024-05-09T06:57:56.043Z,102055.06
2024-05-09T07:00:30.473Z,102055.06
2024-05-09T07:03:12.635Z,102061.50
2024-05-09T07:05:40.784Z,102055.13
2024-05-09T07:08:07.650Z,102060.06
2024-05-09T07:10:37.690Z,102056.25
2024-05-09T07:13:15.070Z,102056.72
2024-05-09T07:15:42.309Z,102058.88
2024-05-09T07:18:15.521Z,102050.78
2024-05-09T07:20:43.150Z,102053.78
2024-05-09T07:23:10.905Z,102056.16
2024-05-09T07:25:38.603Z,102057.44
2024-05-09T07:28:05.805Z,102053.44
2024-05-09T07:30:34.500Z,102055.56
2024-05-09T07:33:03.106Z,102052.75
2024-05-09T07:35:30.943Z,102048.88
2024-05-09T07:37:58.063Z,102049.78
2024-05-09T07:40:32.838Z,102051.94
2024-05-09T07:43:13.091Z,102053.47
2024-05-09T07:45:49.569Z,102052.00
2024-05-09T07:53:38.582Z,102045.28
2024-05-09T07:56:07.544Z,102041.88
2024-05-09T07:58:34.547Z,102038.03
2024-05-09T08:01:02.750Z,102038.25
2024-05-09T08:03:29.601Z,102043.16
2024-05-09T08:05:56.448Z,102025.25
2024-05-09T08:08:23.421Z,102026.75
2024-05-09T08:10:51.124Z,102025.25
2024-05-09T08:13:17.988Z,102034.22
2024-05-09T08:15:44.870Z,102030.16
2024-05-09T08:18:12.128Z,102027.81
2024-05-09T08:20:39.729Z,102028.91
2024-05-09T08:23:06.641Z,102031.88
2024-05-09T08:25:33.431Z,102027.84
2024-05-09T08:28:00.127Z,102018.00
2024-05-09T08:30:33.467Z,102017.78
2024-05-09T08:33:04.623Z,102008.84
2024-05-09T08:35:32.109Z,102005.41
2024-05-09T08:37:59.103Z,102012.03
2024-05-09T08:40:33.364Z,102008.59
2024-05-09T08:43:06.765Z,102008.53
2024-05-09T08:45:35.533Z,102006.81
2024-05-09T08:48:06.268Z,102009.56
2024-05-09T08:50:38.696Z,102001.00
2024-05-09T08:53:07.174Z,102000.34
2024-05-09T08:55:33.951Z,101999.88
2024-05-09T08:58:01.792Z,101998.09
2024-05-09T09:00:36.523Z,101992.72
2024-05-09T09:03:06.776Z,101985.38
2024-05-09T09:05:36.460Z,101984.63
2024-05-09T09:08:06.622Z,101987.59
2024-05-09T09:10:33.747Z,101984.56
2024-05-09T09:13:04.999Z,101982.53
2024-05-09T09:15:32.567Z,101969.38
2024-05-09T09:18:00.743Z,101960.44
2024-05-09T09:20:35.687Z,101969.91
2024-05-09T09:23:04.313Z,101957.94
2024-05-09T09:25:31.658Z,101954.31
2024-05-09T09:27:58.820Z,101957.50
2024-05-09T09:30:36.254Z,101944.56
2024-05-09T09:33:06.263Z,101943.28
2024-05-09T09:35:33.815Z,101945.75
2024-05-09T09:38:03.134Z,101945.72
2024-05-09T09:40:42.518Z,101934.59
2024-05-09T09:43:20.109Z,101934.28
2024-05-09T09:45:50.603Z,101928.97
2024-05-09T09:48:17.714Z,101923.56
2024-05-09T09:50:45.482Z,101917.97
2024-05-09T09:53:13.643Z,101916.16
2024-05-09T09:55:40.684Z,101921.00
2024-05-09T09:58:09.780Z,101919.19
2024-05-09T10:00:39.081Z,101912.59
2024-05-09T10:03:05.981Z,101906.16
2024-05-09T10:05:34.354Z,101897.59
2024-05-09T10:08:06.934Z,101909.91
2024-05-09T10:10:36.444Z,101899.47
2024-05-09T10:13:07.480Z,101884.78
2024-05-09T10:15:45.652Z,101884.78
2024-05-09T10:18:12.826Z,101877.25
2024-05-09T10:20:46.742Z,101872.97
2024-05-09T10:23:30.168Z,101867.88
2024-05-09T10:26:06.426Z,101859.06
2024-05-09T10:28:35.663Z,101856.75
2024-05-09T10:31:10.525Z,101863.94
2024-05-09T10:33:51.857Z,101862.56
2024-05-09T10:36:25.654Z,101850.31
2024-05-09T10:38:53.878Z,101855.19
2024-05-09T10:41:21.676Z,101843.03
2024-05-09T10:43:48.978Z,101840.75
2024-05-09T10:46:16.512Z,101841.22
2024-05-09T10:48:44.420Z,101839.25
2024-05-09T10:51:11.634Z,101843.66
2024-05-09T10:53:42.568Z,101833.44
2024-05-09T10:56:09.729Z,101836.69
2024-05-09T10:58:36.793Z,101823.59
2024-05-09T11:01:06.855Z,101826.47
2024-05-09T11:03:34.739Z,101821.00
2024-05-09T11:06:01.717Z,101827.31
2024-05-09T11:08:29.308Z,101823.41
2024-05-09T11:10:56.539Z,101826.59
2024-05-09T11:13:33.615Z,101818.31
2024-05-09T11:16:00.890Z,101805.78
2024-05-09T11:18:33.269Z,101809.16
2024-05-09T11:21:02.861Z,101802.91
2024-05-09T11:23:32.453Z,101803.66
2024-05-09T11:25:59.334Z,101794.22
2024-05-09T11:28:28.573Z,101800.44
2024-05-09T11:33:37.080Z,101783.75
2024-05-09T11:36:04.254Z,101785.25
2024-05-09T11:38:31.196Z,101782.16
2024-05-09T11:40:57.825Z,101765.91
2024-05-09T11:43:24.467Z,101772.09
2024-05-09T11:45:51.255Z,101770.97
2024-05-09T11:48:17.880Z,101778.25
2024-05-09T11:50:44.511Z,101770.88
2024-05-09T11:53:12.185Z,101770.34
2024-05-09T11:55:38.875Z,101766.47
2024-05-09T11:58:05.869Z,101773.78
2024-05-09T12:00:36.929Z,101766.72
2024-05-09T12:03:05.773Z,101757.44
2024-05-09T12:05:34.021Z,101766.69
2024-05-09T12:08:01.164Z,101746.44
2024-05-09T12:10:33.298Z,101745.06
2024-05-09T12:13:03.491Z,101742.25
2024-05-09T12:15:31.654Z,101741.41
2024-05-09T12:18:01.476Z,101728.69
2024-05-09T12:20:36.575Z,101728.06
2024-05-09T12:23:05.810Z,101718.91
2024-05-09T12:25:32.504Z,101718.16
2024-05-09T12:27:59.514Z,101718.00
2024-05-09T12:30:35.298Z,101709.41
2024-05-09T12:33:05.819Z,101709.41
2024-05-09T12:35:35.744Z,101709.50
2024-05-09T12:38:02.614Z,101713.34
2024-05-09T12:40:36.243Z,101695.03
2024-05-09T12:43:09.152Z,101703.03
2024-05-09T12:45:37.262Z,101699.88
2024-05-09T12:48:06.865Z,101699.72
2024-05-09T12:50:34.660Z,101701.63
2024-05-09T12:53:02.751Z,101696.28
2024-05-09T12:55:36.432Z,101701.19
2024-05-09T12:58:08.837Z,101693.59
2024-05-09T13:00:35.966Z,101694.75
2024-05-09T13:03:03.090Z,101676.97
2024-05-09T13:05:30.140Z,101676.00
2024-05-09T13:07:57.345Z,101679.16
2024-05-09T13:10:31.150Z,101672.72
2024-05-09T13:13:00.771Z,101671.38
2024-05-09T13:15:28.182Z,101675.03
2024-05-09T13:17:57.146Z,101664.59
2024-05-09T13:20:31.980Z,101664.16
2024-05-09T13:23:05.904Z,101665.13
2024-05-09T13:25:34.921Z,101663.25
2024-05-09T13:28:02.389Z,101659.94
2024-05-09T13:30:38.255Z,101659.19
2024-05-09T13:33:08.741Z,101660.75
2024-05-09T13:35:36.151Z,101660.69
2024-05-09T13:38:04.786Z,101653.41
2024-05-09T13:40:34.823Z,101654.88
2024-05-09T13:43:06.684Z,101649.75
2024-05-09T13:45:34.323Z,101641.72
2024-05-09T13:48:02.541Z,101647.31
2024-05-09T13:50:35.916Z,101640.13
2024-05-09T13:53:07.914Z,101623.91
2024-05-09T13:55:38.936Z,101628.19
2024-05-09T13:58:06.446Z,101614.63
2024-05-09T14:00:43.890Z,101615.63
2024-05-09T14:03:15.910Z,101615.84
2024-05-09T14:05:43.162Z,101611.41
2024-05-09T14:08:10.076Z,101612.03
2024-05-09T14:10:43.367Z,101601.00
2024-05-09T14:13:10.355Z,101599.06
2024-05-09T14:15:37.647Z,101603.00
2024-05-09T14:18:04.698Z,101605.09
2024-05-09T14:20:32.465Z,101601.09
2024-05-09T14:23:00.768Z,101593.56
2024-05-09T14:25:28.785Z,101603.94
2024-05-09T14:27:57.501Z,101600.13
2024-05-09T14:30:31.029Z,101607.16
2024-05-09T14:33:03.643Z,101594.66
2024-05-09T14:35:30.414Z,101603.25
2024-05-09T14:37:57.138Z,101603.44
2024-05-09T14:42:53.341Z,101596.75
2024-05-09T14:45:19.966Z,101602.31
2024-05-09T14:47:46.846Z,101589.00
2024-05-09T14:50:19.647Z,101596.50
2024-05-09T14:52:54.239Z,101582.41
2024-05-09T14:55:20.935Z,101587.13
2024-05-09T14:57:47.624Z,101580.47
2024-05-09T15:00:21.398Z,101577.16
2024-05-09T15:02:53.102Z,101567.44
2024-05-09T15:05:19.842Z,101566.38
2024-05-09T15:07:46.581Z,101560.22
2024-05-09T15:10:20.401Z,101546.81
2024-05-09T15:12:50.681Z,101550.09
2024-05-09T15:15:18.006Z,101536.81
2024-05-09T15:17:45.052Z,101549.19
2024-05-09T15:20:17.295Z,101541.00
2024-05-09T15:22:47.035Z,101530.78
2024-05-09T15:25:13.876Z,101535.91
2024-05-09T15:27:40.685Z,101537.81
2024-05-09T15:30:10.727Z,101529.84
2024-05-09T15:32:37.706Z,101532.06
2024-05-09T15:35:05.507Z,101532.13
2024-05-09T15:37:32.440Z,101523.72
2024-05-09T15:39:59.247Z,101522.88
2024-05-09T15:42:25.897Z,101519.34
2024-05-09T15:44:53.143Z,101513.09
2024-05-09T15:47:20.383Z,101515.06
2024-05-09T15:49:47.840Z,101505.34
2024-05-09T15:52:17.681Z,101501.94
2024-05-09T15:54:44.401Z,101507.44
2024-05-09T15:57:11.756Z,101504.38
2024-05-09T15:59:38.608Z,101508.50
2024-05-09T16:02:05.971Z,101504.06
2024-05-09T16:04:32.869Z,101491.31
2024-05-09T16:06:59.645Z,101505.72
2024-05-09T16:09:26.311Z,101498.53
2024-05-09T16:11:52.949Z,101496.84
2024-05-09T16:14:19.537Z,101502.44
2024-05-09T16:16:46.775Z,101492.13
2024-05-09T16:19:13.765Z,101477.38
2024-05-09T16:21:40.448Z,101486.50
2024-05-09T16:24:07.038Z,101493.41
2024-05-09T16:26:33.689Z,101492.69
2024-05-09T16:29:00.356Z,101492.59
2024-05-09T16:31:27.158Z,101495.19
2024-05-09T16:33:53.924Z,101494.66
2024-05-09T16:36:20.784Z,101487.41
2024-05-09T16:38:47.418Z,101495.50
2024-05-09T16:41:15.535Z,101492.66
2024-05-09T16:43:42.135Z,101490.41
2024-05-09T16:46:09.065Z,101481.97
2024-05-09T16:48:37.143Z,101494.75
2024-05-09T16:51:03.894Z,101495.72
2024-05-09T16:53:30.495Z,101500.88
2024-05-09T16:56:01.914Z,101502.88
2024-05-09T16:58:29.118Z,101500.59
2024-05-09T17:00:55.923Z,101496.25
2024-05-09T17:03:23.653Z,101509.34
2024-05-09T17:05:50.752Z,101508.28
2024-05-09T17:08:20.469Z,101500.78
2024-05-09T17:10:50.492Z,101508.66
2024-05-09T17:13:17.503Z,101504.75
2024-05-09T17:15:44.434Z,101503.09
2024-05-09T17:18:11.214Z,101509.59
2024-05-09T17:20:38.134Z,101506.50
2024-05-09T17:23:12.316Z,101512.72
2024-05-09T17:25:39.746Z,101510.50
2024-05-09T17:28:08.690Z,101516.72
2024-05-09T17:30:38.201Z,101519.25
2024-05-09T17:33:08.417Z,101521.78
2024-05-09T17:35:36.321Z,101524.31
2024-05-09T17:38:03.743Z,101516.16
2024-05-09T17:40:33.998Z,101524.63
2024-05-09T17:43:04.067Z,101516.19
2024-05-09T17:45:31.607Z,101521.78
2024-05-09T17:47:58.813Z,101517.28
2024-05-09T17:50:31.663Z,101527.34
2024-05-09T17:53:02.603Z,101524.22
2024-05-09T17:55:29.587Z,101523.94
2024-05-09T17:57:56.505Z,101524.94
2024-05-09T18:00:33.239Z,101528.84
2024-05-09T18:03:05.715Z,101532.66
2024-05-09T18:05:32.619Z,101530.94
2024-05-09T18:07:59.520Z,101533.09
2024-05-09T18:10:33.165Z,101534.66
2024-05-09T18:13:05.245Z,101537.34
2024-05-09T18:15:32.255Z,101533.91
2024-05-09T18:18:02.462Z,101538.78
2024-05-09T18:20:38.076Z,101541.50
2024-05-09T18:23:10.587Z,101534.13
2024-05-09T18:25:37.318Z,101534.88
2024-05-09T18:28:04.752Z,101537.56
2024-05-09T18:30:35.162Z,101541.13
2024-05-09T18:33:05.426Z,101533.19
2024-05-09T18:35:33.419Z,101535.28
2024-05-09T18:38:00.402Z,101538.50
2024-05-09T18:40:33.650Z,101534.50
2024-05-09T18:43:06.149Z,101544.44
2024-05-09T18:45:34.347Z,101544.88
2024-05-09T18:48:01.383Z,101545.59
2024-05-09T18:50:34.630Z,101551.06
2024-05-09T18:53:08.575Z,101545.84
2024-05-09T18:55:35.499Z,101549.59
2024-05-09T18:58:02.860Z,101549.44
2024-05-09T19:00:35.406Z,101560.16
2024-05-09T19:03:09.459Z,101557.81
2024-05-09T19:05:38.781Z,101558.75
2024-05-09T19:08:06.124Z,101567.53
2024-05-09T19:10:34.970Z,101563.47
2024-05-09T19:13:08.041Z,101559.66
2024-05-09T19:15:38.395Z,101579.25
2024-05-09T19:18:06.129Z,101582.19
2024-05-09T19:20:35.239Z,101586.75
2024-05-09T19:23:03.534Z,101580.31
2024-05-09T19:25:30.430Z,101584.63
2024-05-09T19:27:57.207Z,101586.09
2024-05-09T19:30:32.888Z,101593.13
2024-05-09T19:33:05.817Z,101596.84
2024-05-09T19:35:32.984Z,101592.22
2024-05-09T19:37:59.987Z,101598.78
2024-05-09T19:40:31.506Z,101598.94
2024-05-09T19:43:01.148Z,101604.25
2024-05-09T19:45:28.150Z,101602.09
2024-05-09T19:47:55.430Z,101614.44
2024-05-09T19:50:30.824Z,101603.88
2024-05-09T19:53:04.043Z,101608.09
2024-05-09T19:55:30.750Z,101608.72
2024-05-09T19:57:58.239Z,101609.91
2024-05-09T20:00:32.664Z,101611.69
2024-05-09T20:03:02.785Z,101620.16
2024-05-09T20:05:32.785Z,101621.34
2024-05-09T20:07:59.807Z,101622.78
2024-05-09T20:10:31.054Z,101626.75
2024-05-09T20:12:59.711Z,101629.88
2024-05-09T20:15:26.601Z,101632.38
2024-05-09T20:17:53.774Z,101630.53
2024-05-09T20:20:28.681Z,101630.69
2024-05-09T20:23:03.303Z,101629.09
2024-05-09T20:25:29.970Z,101637.75
2024-05-09T20:27:56.671Z,101634.44
2024-05-09T20:30:30.586Z,101643.69
2024-05-09T20:32:59.514Z,101649.19
2024-05-09T20:35:26.767Z,101651.78
2024-05-09T20:37:53.722Z,101645.06
2024-05-09T20:40:28.399Z,101645.31
2024-05-09T20:42:59.368Z,101641.78
2024-05-09T20:45:26.399Z,101646.69
2024-05-09T20:47:53.337Z,101652.47
2024-05-09T20:50:28.539Z,101649.94
2024-05-09T20:53:03.089Z,101653.38
2024-05-09T20:55:30.065Z,101653.38
2024-05-09T20:57:57.451Z,101646.59
2024-05-09T21:00:33.754Z,101641.03
2024-05-09T21:03:06.305Z,101643.22
2024-05-09T21:05:33.696Z,101649.22
2024-05-09T21:08:00.698Z,101646.44
2024-05-09T21:10:31.565Z,101643.03
2024-05-09T21:12:59.762Z,101647.34
2024-05-09T21:15:26.341Z,101646.75
2024-05-09T21:17:53.038Z,101644.41
2024-05-09T21:20:24.304Z,101649.19
2024-05-09T21:22:57.982Z,101647.25
2024-05-09T21:25:24.777Z,101652.66
2024-05-09T21:27:51.558Z,101649.72
2024-05-09T21:30:27.369Z,101647.84
2024-05-09T21:32:59.922Z,101648.72
2024-05-09T21:35:26.673Z,101638.56
2024-05-09T21:37:53.316Z,101635.13
2024-05-09T21:40:27.345Z,101644.38
2024-05-09T21:43:00.931Z,101646.34
2024-05-09T21:45:27.791Z,101641.69
2024-05-09T21:47:54.722Z,101642.97
2024-05-09T21:50:28.048Z,101645.19
2024-05-09T21:52:59.099Z,101644.34
2024-05-09T21:55:25.781Z,101645.91
2024-05-09T21:57:52.555Z,101636.31
2024-05-09T22:00:28.799Z,101648.91
2024-05-09T22:03:02.144Z,101642.31
2024-05-09T22:05:29.218Z,101643.63
2024-05-09T22:07:56.997Z,101647.91
2024-05-09T22:10:30.534Z,101647.06
2024-05-09T22:13:00.974Z,101648.81
2024-05-09T22:15:30.384Z,101646.88
2024-05-09T22:17:57.605Z,101659.91
2024-05-09T22:20:33.502Z,101660.34
2024-05-09T22:23:04.209Z,101647.13
2024-05-09T22:25:32.122Z,101640.34
2024-05-09T22:27:59.977Z,101651.00
2024-05-09T22:30:34.660Z,101650.59
2024-05-09T22:33:05.837Z,101647.41
2024-05-09T22:35:32.992Z,101650.00
2024-05-09T22:37:59.812Z,101655.94
2024-05-09T22:40:38.172Z,101657.25
2024-05-09T22:43:12.916Z,101658.97
2024-05-09T22:45:39.861Z,101661.94
2024-05-09T22:48:07.990Z,101664.91
2024-05-09T22:50:34.823Z,101663.03
2024-05-09T22:53:01.486Z,101657.06
2024-05-09T22:55:28.443Z,101656.22
2024-05-09T22:57:55.208Z,101657.94
2024-05-09T23:00:29.465Z,101654.53
2024-05-09T23:03:02.289Z,101663.47
2024-05-09T23:05:29.382Z,101659.66
2024-05-09T23:07:56.198Z,101655.81
2024-05-09T23:10:30.914Z,101653.28
2024-05-09T23:13:01.947Z,101654.97
2024-05-09T23:15:29.306Z,101658.81
2024-05-09T23:17:56.270Z,101655.22
2024-05-09T23:20:33.252Z,101659.22
2024-05-09T23:23:05.151Z,101663.50
2024-05-09T23:25:31.852Z,101671.16
2024-05-09T23:27:58.774Z,101669.88
2024-05-09T23:30:33.996Z,101661.16
2024-05-09T23:33:05.958Z,101664.56
2024-05-09T23:35:32.738Z,101662.22
2024-05-09T23:37:59.633Z,101655.81
2024-05-09T23:40:37.027Z,101659.25
2024-05-09T23:43:07.164Z,101661.13
2024-05-09T23:45:34.092Z,101662.22
2024-05-09T23:48:01.303Z,101661.56
2024-05-09T23:50:34.507Z,101668.53
2024-05-09T23:53:05.103Z,101659.81
2024-05-09T23:55:32.400Z,101654.72
2024-05-09T23:57:59.754Z,101650.66
